sensor_id;sensor_type;location;lat;lon;timestamp;P1;durP1;ratioP1;P2;durP2;ratioP2
67274;SDS011;55463;52.324;5.122;2023-02-14T00:01:50;222.85;;;50.55;;
67274;SDS011;55463;52.324;5.122;2023-02-14T00:04:16;210.55;;;49.75;;
67274;SDS011;55463;52.324;5.122;2023-02-14T00:06:47;231.63;;;52.17;;
67274;SDS011;55463;52.324;5.122;2023-02-14T00:09:15;211.55;;;49.33;;
67274;SDS011;55463;52.324;5.122;2023-02-14T00:11:42;218.73;;;52.00;;
67274;SDS011;55463;52.324;5.122;2023-02-14T00:14:11;234.63;;;51.17;;
67274;SDS011;55463;52.324;5.122;2023-02-14T00:16:55;202.73;;;49.85;;
67274;SDS011;55463;52.324;5.122;2023-02-14T00:19:21;234.10;;;51.45;;
67274;SDS011;55463;52.324;5.122;2023-02-14T00:21:47;211.40;;;51.45;;
67274;SDS011;55463;52.324;5.122;2023-02-14T00:24:17;269.20;;;50.53;;
67274;SDS011;55463;52.324;5.122;2023-02-14T00:26:50;270.58;;;51.55;;
67274;SDS011;55463;52.324;5.122;2023-02-14T00:31:47;255.23;;;50.78;;
67274;SDS011;55463;52.324;5.122;2023-02-14T00:34:16;282.13;;;53.78;;
67274;SDS011;55463;52.324;5.122;2023-02-14T00:36:43;283.48;;;54.38;;
67274;SDS011;55463;52.324;5.122;2023-02-14T00:39:10;242.93;;;51.80;;
67274;SDS011;55463;52.324;5.122;2023-02-14T00:41:37;244.88;;;51.83;;
67274;SDS011;55463;52.324;5.122;2023-02-14T00:44:04;258.27;;;53.17;;
67274;SDS011;55463;52.324;5.122;2023-02-14T00:46:30;215.65;;;50.28;;
67274;SDS011;55463;52.324;5.122;2023-02-14T00:48:56;230.95;;;50.10;;
67274;SDS011;55463;52.324;5.122;2023-02-14T00:51:21;251.18;;;51.75;;
67274;SDS011;55463;52.324;5.122;2023-02-14T00:53:47;247.32;;;52.10;;
67274;SDS011;55463;52.324;5.122;2023-02-14T00:56:14;256.98;;;52.60;;
67274;SDS011;55463;52.324;5.122;2023-02-14T00:58:41;247.90;;;52.22;;
67274;SDS011;55463;52.324;5.122;2023-02-14T01:01:07;257.30;;;51.55;;
67274;SDS011;55463;52.324;5.122;2023-02-14T01:03:35;234.63;;;51.72;;
67274;SDS011;55463;52.324;5.122;2023-02-14T01:06:01;258.50;;;52.75;;
67274;SDS011;55463;52.324;5.122;2023-02-14T01:08:27;270.45;;;54.58;;
67274;SDS011;55463;52.324;5.122;2023-02-14T01:10:54;255.63;;;52.70;;
67274;SDS011;55463;52.324;5.122;2023-02-14T01:13:20;278.98;;;53.80;;
67274;SDS011;55463;52.324;5.122;2023-02-14T01:15:50;248.15;;;49.33;;
67274;SDS011;55463;52.324;5.122;2023-02-14T01:18:17;237.80;;;52.22;;
67274;SDS011;55463;52.324;5.122;2023-02-14T01:20:45;262.80;;;53.08;;
67274;SDS011;55463;52.324;5.122;2023-02-14T01:23:11;256.15;;;52.97;;
67274;SDS011;55463;52.324;5.122;2023-02-14T01:25:39;299.13;;;56.08;;
67274;SDS011;55463;52.324;5.122;2023-02-14T01:28:05;319.42;;;53.40;;
67274;SDS011;55463;52.324;5.122;2023-02-14T01:30:33;222.90;;;51.00;;
67274;SDS011;55463;52.324;5.122;2023-02-14T01:33:04;274.38;;;52.70;;
67274;SDS011;55463;52.324;5.122;2023-02-14T01:35:32;244.13;;;51.70;;
67274;SDS011;55463;52.324;5.122;2023-02-14T01:38:02;253.98;;;49.75;;
67274;SDS011;55463;52.324;5.122;2023-02-14T01:40:30;235.25;;;49.78;;
67274;SDS011;55463;52.324;5.122;2023-02-14T01:42:58;227.82;;;48.42;;
67274;SDS011;55463;52.324;5.122;2023-02-14T01:45:26;228.15;;;50.60;;
67274;SDS011;55463;52.324;5.122;2023-02-14T01:47:53;246.00;;;50.95;;
67274;SDS011;55463;52.324;5.122;2023-02-14T01:50:27;228.05;;;47.30;;
67274;SDS011;55463;52.324;5.122;2023-02-14T01:53:05;251.70;;;52.15;;
67274;SDS011;55463;52.324;5.122;2023-02-14T01:55:36;268.67;;;50.22;;
67274;SDS011;55463;52.324;5.122;2023-02-14T02:00:48;253.93;;;50.95;;
67274;SDS011;55463;52.324;5.122;2023-02-14T02:03:30;275.23;;;51.85;;
67274;SDS011;55463;52.324;5.122;2023-02-14T02:11:41;263.20;;;50.28;;
67274;SDS011;55463;52.324;5.122;2023-02-14T02:14:17;237.38;;;47.25;;
67274;SDS011;55463;52.324;5.122;2023-02-14T02:25:05;244.98;;;48.17;;
67274;SDS011;55463;52.324;5.122;2023-02-14T02:38:40;276.17;;;50.97;;
67274;SDS011;55463;52.324;5.122;2023-02-14T02:41:22;242.63;;;46.97;;
67274;SDS011;55463;52.324;5.122;2023-02-14T02:43:54;237.25;;;48.08;;
67274;SDS011;55463;52.324;5.122;2023-02-14T02:46:31;256.70;;;48.50;;
67274;SDS011;55463;52.324;5.122;2023-02-14T02:49:24;229.05;;;47.88;;
67274;SDS011;55463;52.324;5.122;2023-02-14T02:52:38;247.00;;;47.75;;
67274;SDS011;55463;52.324;5.122;2023-02-14T02:55:39;258.50;;;47.40;;
67274;SDS011;55463;52.324;5.122;2023-02-14T02:58:34;225.82;;;44.97;;
67274;SDS011;55463;52.324;5.122;2023-02-14T03:01:06;201.07;;;45.17;;
67274;SDS011;55463;52.324;5.122;2023-02-14T03:03:35;209.85;;;46.47;;
67274;SDS011;55463;52.324;5.122;2023-02-14T03:06:21;255.55;;;48.83;;
67274;SDS011;55463;52.324;5.122;2023-02-14T03:08:46;225.02;;;47.60;;
67274;SDS011;55463;52.324;5.122;2023-02-14T03:11:12;284.92;;;50.33;;
67274;SDS011;55463;52.324;5.122;2023-02-14T03:21:36;298.30;;;51.38;;
67274;SDS011;55463;52.324;5.122;2023-02-14T03:32:39;277.50;;;48.72;;
67274;SDS011;55463;52.324;5.122;2023-02-14T03:37:50;181.77;;;42.95;;
67274;SDS011;55463;52.324;5.122;2023-02-14T03:40:36;253.68;;;49.80;;
67274;SDS011;55463;52.324;5.122;2023-02-14T03:43:10;281.90;;;50.88;;
67274;SDS011;55463;52.324;5.122;2023-02-14T03:45:41;222.88;;;46.92;;
67274;SDS011;55463;52.324;5.122;2023-02-14T03:50:37;246.25;;;44.20;;
67274;SDS011;55463;52.324;5.122;2023-02-14T03:53:07;233.40;;;45.67;;
67274;SDS011;55463;52.324;5.122;2023-02-14T03:55:40;224.48;;;45.55;;
67274;SDS011;55463;52.324;5.122;2023-02-14T03:58:15;268.25;;;51.15;;
67274;SDS011;55463;52.324;5.122;2023-02-14T04:00:45;236.98;;;47.10;;
67274;SDS011;55463;52.324;5.122;2023-02-14T04:03:14;214.50;;;47.67;;
67274;SDS011;55463;52.324;5.122;2023-02-14T04:05:42;218.75;;;47.20;;
67274;SDS011;55463;52.324;5.122;2023-02-14T04:08:26;263.52;;;50.92;;
67274;SDS011;55463;52.324;5.122;2023-02-14T04:10:54;233.30;;;47.15;;
67274;SDS011;55463;52.324;5.122;2023-02-14T04:13:25;319.50;;;52.05;;
67274;SDS011;55463;52.324;5.122;2023-02-14T04:15:51;354.98;;;55.08;;
67274;SDS011;55463;52.324;5.122;2023-02-14T04:18:17;268.70;;;50.90;;
67274;SDS011;55463;52.324;5.122;2023-02-14T04:21:03;218.50;;;46.05;;
67274;SDS011;55463;52.324;5.122;2023-02-14T04:23:29;197.43;;;45.40;;
67274;SDS011;55463;52.324;5.122;2023-02-14T04:25:54;232.35;;;47.60;;
67274;SDS011;55463;52.324;5.122;2023-02-14T04:28:20;244.90;;;48.42;;
67274;SDS011;55463;52.324;5.122;2023-02-14T04:30:45;231.13;;;46.83;;
67274;SDS011;55463;52.324;5.122;2023-02-14T04:33:11;242.88;;;50.35;;
67274;SDS011;55463;52.324;5.122;2023-02-14T04:35:36;242.38;;;47.33;;
67274;SDS011;55463;52.324;5.122;2023-02-14T04:38:02;256.85;;;48.38;;
67274;SDS011;55463;52.324;5.122;2023-02-14T04:40:29;247.07;;;45.90;;
67274;SDS011;55463;52.324;5.122;2023-02-14T04:42:54;209.00;;;47.13;;
67274;SDS011;55463;52.324;5.122;2023-02-14T04:45:20;193.07;;;44.05;;
67274;SDS011;55463;52.324;5.122;2023-02-14T04:47:46;237.40;;;46.28;;
67274;SDS011;55463;52.324;5.122;2023-02-14T04:50:11;229.38;;;44.72;;
67274;SDS011;55463;52.324;5.122;2023-02-14T04:52:37;199.20;;;43.67;;
67274;SDS011;55463;52.324;5.122;2023-02-14T04:55:03;207.98;;;44.00;;
67274;SDS011;55463;52.324;5.122;2023-02-14T04:57:31;211.70;;;46.60;;
67274;SDS011;55463;52.324;5.122;2023-02-14T04:59:57;175.38;;;43.22;;
67274;SDS011;55463;52.324;5.122;2023-02-14T05:02:22;172.05;;;42.10;;
67274;SDS011;55463;52.324;5.122;2023-02-14T05:04:48;200.55;;;44.00;;
67274;SDS011;55463;52.324;5.122;2023-02-14T05:07:13;201.23;;;42.53;;
67274;SDS011;55463;52.324;5.122;2023-02-14T05:09:39;184.13;;;42.75;;
67274;SDS011;55463;52.324;5.122;2023-02-14T05:12:04;158.07;;;41.13;;
67274;SDS011;55463;52.324;5.122;2023-02-14T05:14:30;157.75;;;41.05;;
67274;SDS011;55463;52.324;5.122;2023-02-14T05:16:57;182.85;;;42.13;;
67274;SDS011;55463;52.324;5.122;2023-02-14T05:19:23;173.63;;;42.60;;
67274;SDS011;55463;52.324;5.122;2023-02-14T05:21:49;139.88;;;39.13;;
67274;SDS011;55463;52.324;5.122;2023-02-14T05:24:15;149.57;;;41.22;;
67274;SDS011;55463;52.324;5.122;2023-02-14T05:26:40;164.10;;;43.47;;
67274;SDS011;55463;52.324;5.122;2023-02-14T05:29:06;159.80;;;40.88;;
67274;SDS011;55463;52.324;5.122;2023-02-14T05:31:32;186.18;;;41.90;;
67274;SDS011;55463;52.324;5.122;2023-02-14T05:33:57;159.50;;;39.50;;
67274;SDS011;55463;52.324;5.122;2023-02-14T05:36:22;163.80;;;40.30;;
67274;SDS011;55463;52.324;5.122;2023-02-14T05:38:48;157.73;;;40.35;;
67274;SDS011;55463;52.324;5.122;2023-02-14T05:41:13;172.65;;;41.03;;
67274;SDS011;55463;52.324;5.122;2023-02-14T05:43:39;160.30;;;41.83;;
67274;SDS011;55463;52.324;5.122;2023-02-14T05:46:04;144.73;;;40.40;;
67274;SDS011;55463;52.324;5.122;2023-02-14T05:48:30;161.55;;;40.63;;
67274;SDS011;55463;52.324;5.122;2023-02-14T05:50:55;147.75;;;39.85;;
67274;SDS011;55463;52.324;5.122;2023-02-14T05:53:21;200.73;;;44.72;;
67274;SDS011;55463;52.324;5.122;2023-02-14T05:55:47;147.75;;;39.63;;
67274;SDS011;55463;52.324;5.122;2023-02-14T05:58:12;177.05;;;41.60;;
67274;SDS011;55463;52.324;5.122;2023-02-14T06:00:38;140.25;;;37.38;;
67274;SDS011;55463;52.324;5.122;2023-02-14T06:03:04;117.68;;;36.03;;
67274;SDS011;55463;52.324;5.122;2023-02-14T06:05:29;130.38;;;37.65;;
67274;SDS011;55463;52.324;5.122;2023-02-14T06:07:55;184.32;;;42.70;;
67274;SDS011;55463;52.324;5.122;2023-02-14T06:10:21;152.75;;;37.55;;
67274;SDS011;55463;52.324;5.122;2023-02-14T06:12:49;136.90;;;36.70;;
67274;SDS011;55463;52.324;5.122;2023-02-14T06:15:15;134.63;;;37.05;;
67274;SDS011;55463;52.324;5.122;2023-02-14T06:17:41;145.88;;;39.03;;
67274;SDS011;55463;52.324;5.122;2023-02-14T06:20:07;133.13;;;37.15;;
67274;SDS011;55463;52.324;5.122;2023-02-14T06:22:38;142.35;;;38.33;;
67274;SDS011;55463;52.324;5.122;2023-02-14T06:25:05;155.38;;;37.50;;
67274;SDS011;55463;52.324;5.122;2023-02-14T06:27:30;128.63;;;36.40;;
67274;SDS011;55463;52.324;5.122;2023-02-14T06:29:56;149.68;;;37.95;;
67274;SDS011;55463;52.324;5.122;2023-02-14T06:32:23;148.18;;;37.10;;
67274;SDS011;55463;52.324;5.122;2023-02-14T06:34:48;122.13;;;35.38;;
67274;SDS011;55463;52.324;5.122;2023-02-14T06:37:16;116.38;;;36.58;;
67274;SDS011;55463;52.324;5.122;2023-02-14T06:39:42;168.35;;;40.13;;
67274;SDS011;55463;52.324;5.122;2023-02-14T06:42:07;138.75;;;37.83;;
67274;SDS011;55463;52.324;5.122;2023-02-14T06:44:33;161.55;;;40.10;;
67274;SDS011;55463;52.324;5.122;2023-02-14T06:46:58;152.15;;;38.97;;
67274;SDS011;55463;52.324;5.122;2023-02-14T06:49:24;153.77;;;37.90;;
67274;SDS011;55463;52.324;5.122;2023-02-14T06:51:49;135.20;;;36.00;;
67274;SDS011;55463;52.324;5.122;2023-02-14T06:54:15;165.38;;;39.63;;
67274;SDS011;55463;52.324;5.122;2023-02-14T06:56:40;138.13;;;36.45;;
67274;SDS011;55463;52.324;5.122;2023-02-14T06:59:06;146.25;;;38.40;;
67274;SDS011;55463;52.324;5.122;2023-02-14T07:01:31;147.90;;;39.90;;
67274;SDS011;55463;52.324;5.122;2023-02-14T07:03:57;118.97;;;36.72;;
67274;SDS011;55463;52.324;5.122;2023-02-14T07:06:22;127.00;;;35.47;;
67274;SDS011;55463;52.324;5.122;2023-02-14T07:08:48;133.20;;;36.45;;
67274;SDS011;55463;52.324;5.122;2023-02-14T07:11:13;155.70;;;39.45;;
67274;SDS011;55463;52.324;5.122;2023-02-14T07:13:39;172.07;;;41.90;;
67274;SDS011;55463;52.324;5.122;2023-02-14T07:16:04;136.85;;;38.10;;
67274;SDS011;55463;52.324;5.122;2023-02-14T07:18:33;144.35;;;38.55;;
67274;SDS011;55463;52.324;5.122;2023-02-14T07:20:58;142.55;;;39.65;;
67274;SDS011;55463;52.324;5.122;2023-02-14T07:23:24;137.07;;;38.30;;
67274;SDS011;55463;52.324;5.122;2023-02-14T07:25:49;148.38;;;40.17;;
67274;SDS011;55463;52.324;5.122;2023-02-14T07:28:15;139.15;;;37.05;;
67274;SDS011;55463;52.324;5.122;2023-02-14T07:30:40;138.30;;;39.05;;
67274;SDS011;55463;52.324;5.122;2023-02-14T07:33:05;147.27;;;39.05;;
67274;SDS011;55463;52.324;5.122;2023-02-14T07:35:33;142.85;;;40.80;;
67274;SDS011;55463;52.324;5.122;2023-02-14T07:37:59;144.02;;;41.47;;
67274;SDS011;55463;52.324;5.122;2023-02-14T07:40:24;143.25;;;40.13;;
67274;SDS011;55463;52.324;5.122;2023-02-14T07:42:53;182.57;;;46.10;;
67274;SDS011;55463;52.324;5.122;2023-02-14T07:45:20;142.70;;;41.30;;
67274;SDS011;55463;52.324;5.122;2023-02-14T07:47:47;125.85;;;40.95;;
67274;SDS011;55463;52.324;5.122;2023-02-14T07:50:13;146.30;;;41.90;;
67274;SDS011;55463;52.324;5.122;2023-02-14T07:52:39;167.88;;;46.05;;
67274;SDS011;55463;52.324;5.122;2023-02-14T07:55:05;121.90;;;41.03;;
67274;SDS011;55463;52.324;5.122;2023-02-14T07:57:34;163.23;;;43.72;;
67274;SDS011;55463;52.324;5.122;2023-02-14T07:59:59;156.35;;;43.78;;
67274;SDS011;55463;52.324;5.122;2023-02-14T08:02:25;152.05;;;43.88;;
67274;SDS011;55463;52.324;5.122;2023-02-14T08:04:50;1010.10;;;112.07;;
67274;SDS011;55463;52.324;5.122;2023-02-14T08:07:15;165.95;;;42.53;;
67274;SDS011;55463;52.324;5.122;2023-02-14T08:09:41;132.05;;;42.45;;
67274;SDS011;55463;52.324;5.122;2023-02-14T08:12:06;142.38;;;43.50;;
67274;SDS011;55463;52.324;5.122;2023-02-14T08:14:50;151.85;;;42.88;;
67274;SDS011;55463;52.324;5.122;2023-02-14T08:17:16;157.15;;;43.97;;
67274;SDS011;55463;52.324;5.122;2023-02-14T08:19:44;145.73;;;43.78;;
67274;SDS011;55463;52.324;5.122;2023-02-14T08:22:09;160.07;;;46.78;;
67274;SDS011;55463;52.324;5.122;2023-02-14T08:24:35;164.80;;;45.92;;
67274;SDS011;55463;52.324;5.122;2023-02-14T08:27:00;146.80;;;43.92;;
67274;SDS011;55463;52.324;5.122;2023-02-14T08:29:28;136.07;;;44.03;;
67274;SDS011;55463;52.324;5.122;2023-02-14T08:31:54;154.15;;;45.13;;
67274;SDS011;55463;52.324;5.122;2023-02-14T08:34:19;151.23;;;44.10;;
67274;SDS011;55463;52.324;5.122;2023-02-14T08:36:45;138.05;;;42.97;;
67274;SDS011;55463;52.324;5.122;2023-02-14T08:39:11;151.48;;;45.55;;
67274;SDS011;55463;52.324;5.122;2023-02-14T08:41:39;153.18;;;45.22;;
67274;SDS011;55463;52.324;5.122;2023-02-14T08:44:07;136.75;;;44.15;;
67274;SDS011;55463;52.324;5.122;2023-02-14T08:46:33;134.05;;;45.15;;
67274;SDS011;55463;52.324;5.122;2023-02-14T08:48:58;134.98;;;44.45;;
67274;SDS011;55463;52.324;5.122;2023-02-14T08:51:24;140.18;;;45.35;;
67274;SDS011;55463;52.324;5.122;2023-02-14T08:53:50;146.15;;;46.60;;
67274;SDS011;55463;52.324;5.122;2023-02-14T08:56:16;133.43;;;46.45;;
67274;SDS011;55463;52.324;5.122;2023-02-14T08:58:42;117.72;;;44.88;;
67274;SDS011;55463;52.324;5.122;2023-02-14T09:01:12;135.82;;;45.88;;
67274;SDS011;55463;52.324;5.122;2023-02-14T09:06:05;131.13;;;42.42;;
67274;SDS011;55463;52.324;5.122;2023-02-14T09:08:32;115.32;;;43.13;;
67274;SDS011;55463;52.324;5.122;2023-02-14T09:11:10;130.25;;;44.90;;
67274;SDS011;55463;52.324;5.122;2023-02-14T09:13:39;118.38;;;43.53;;
67274;SDS011;55463;52.324;5.122;2023-02-14T09:16:05;150.35;;;50.05;;
67274;SDS011;55463;52.324;5.122;2023-02-14T09:18:33;113.93;;;44.90;;
67274;SDS011;55463;52.324;5.122;2023-02-14T09:20:59;124.40;;;46.97;;
67274;SDS011;55463;52.324;5.122;2023-02-14T09:23:26;136.30;;;49.72;;
67274;SDS011;55463;52.324;5.122;2023-02-14T09:25:58;140.40;;;43.85;;
67274;SDS011;55463;52.324;5.122;2023-02-14T09:28:25;115.13;;;44.90;;
67274;SDS011;55463;52.324;5.122;2023-02-14T09:30:51;114.47;;;43.70;;
67274;SDS011;55463;52.324;5.122;2023-02-14T09:33:16;114.95;;;43.72;;
67274;SDS011;55463;52.324;5.122;2023-02-14T09:35:41;123.45;;;46.53;;
67274;SDS011;55463;52.324;5.122;2023-02-14T09:38:08;117.20;;;46.80;;
67274;SDS011;55463;52.324;5.122;2023-02-14T09:40:42;116.47;;;45.55;;
67274;SDS011;55463;52.324;5.122;2023-02-14T09:45:50;106.57;;;42.75;;
67274;SDS011;55463;52.324;5.122;2023-02-14T09:48:27;109.17;;;43.87;;
67274;SDS011;55463;52.324;5.122;2023-02-14T09:51:06;125.95;;;47.30;;
67274;SDS011;55463;52.324;5.122;2023-02-14T09:53:41;131.18;;;43.83;;
67274;SDS011;55463;52.324;5.122;2023-02-14T10:01:14;100.85;;;43.25;;
67274;SDS011;55463;52.324;5.122;2023-02-14T10:06:42;111.15;;;43.50;;
67274;SDS011;55463;52.324;5.122;2023-02-14T10:12:07;112.13;;;44.63;;
67274;SDS011;55463;52.324;5.122;2023-02-14T10:14:46;104.60;;;44.90;;
67274;SDS011;55463;52.324;5.122;2023-02-14T10:19:48;111.65;;;44.78;;
67274;SDS011;55463;52.324;5.122;2023-02-14T10:22:20;106.03;;;44.53;;
67274;SDS011;55463;52.324;5.122;2023-02-14T10:27:36;101.13;;;42.78;;
67274;SDS011;55463;52.324;5.122;2023-02-14T10:30:13;99.97;;;44.67;;
67274;SDS011;55463;52.324;5.122;2023-02-14T10:32:55;93.75;;;41.53;;
67274;SDS011;55463;52.324;5.122;2023-02-14T10:38:20;93.63;;;38.35;;
67274;SDS011;55463;52.324;5.122;2023-02-14T10:54:38;81.20;;;37.22;;
67274;SDS011;55463;52.324;5.122;2023-02-14T10:59:58;74.13;;;36.88;;
67274;SDS011;55463;52.324;5.122;2023-02-14T11:02:41;56.67;;;27.00;;
67274;SDS011;55463;52.324;5.122;2023-02-14T11:35:30;63.08;;;32.33;;
67274;SDS011;55463;52.324;5.122;2023-02-14T11:38:33;58.75;;;30.80;;
67274;SDS011;55463;52.324;5.122;2023-02-14T11:51:41;55.03;;;29.33;;
67274;SDS011;55463;52.324;5.122;2023-02-14T11:54:56;52.40;;;28.50;;
67274;SDS011;55463;52.324;5.122;2023-02-14T15:43:41;34.55;;;19.50;;
67274;SDS011;55463;52.324;5.122;2023-02-14T15:48:51;38.33;;;19.45;;
67274;SDS011;55463;52.324;5.122;2023-02-14T15:51:18;32.45;;;18.20;;
67274;SDS011;55463;52.324;5.122;2023-02-14T15:53:52;33.17;;;20.02;;
67274;SDS011;55463;52.324;5.122;2023-02-14T15:56:30;34.55;;;20.48;;
67274;SDS011;55463;52.324;5.122;2023-02-14T15:59:00;36.30;;;20.30;;
67274;SDS011;55463;52.324;5.122;2023-02-14T16:01:29;40.42;;;21.48;;
67274;SDS011;55463;52.324;5.122;2023-02-14T16:03:57;40.70;;;22.92;;
67274;SDS011;55463;52.324;5.122;2023-02-14T16:06:30;35.15;;;21.33;;
67274;SDS011;55463;52.324;5.122;2023-02-14T16:09:22;36.17;;;22.00;;
67274;SDS011;55463;52.324;5.122;2023-02-14T16:11:50;43.15;;;23.58;;
67274;SDS011;55463;52.324;5.122;2023-02-14T16:14:33;37.33;;;21.42;;
67274;SDS011;55463;52.324;5.122;2023-02-14T16:20:04;36.45;;;21.90;;
67274;SDS011;55463;52.324;5.122;2023-02-14T16:22:24;40.78;;;22.58;;
67274;SDS011;55463;52.324;5.122;2023-02-14T16:24:56;42.17;;;23.52;;
67274;SDS011;55463;52.324;5.122;2023-02-14T16:27:22;41.33;;;21.67;;
67274;SDS011;55463;52.324;5.122;2023-02-14T16:29:48;44.67;;;24.27;;
67274;SDS011;55463;52.324;5.122;2023-02-14T16:32:20;42.40;;;23.80;;
67274;SDS011;55463;52.324;5.122;2023-02-14T16:34:51;45.50;;;24.38;;
67274;SDS011;55463;52.324;5.122;2023-02-14T16:37:29;45.50;;;23.98;;
67274;SDS011;55463;52.324;5.122;2023-02-14T16:40:19;46.00;;;23.85;;
67274;SDS011;55463;52.324;5.122;2023-02-14T16:42:52;42.42;;;25.02;;
67274;SDS011;55463;52.324;5.122;2023-02-14T16:45:36;188.02;;;113.65;;
67274;SDS011;55463;52.324;5.122;2023-02-14T16:48:01;57.25;;;28.67;;
67274;SDS011;55463;52.324;5.122;2023-02-14T16:50:30;47.63;;;27.08;;
67274;SDS011;55463;52.324;5.122;2023-02-14T16:52:59;52.45;;;30.63;;
67274;SDS011;55463;52.324;5.122;2023-02-14T16:55:39;46.38;;;26.90;;
67274;SDS011;55463;52.324;5.122;2023-02-14T16:58:12;58.15;;;27.88;;
67274;SDS011;55463;52.324;5.122;2023-02-14T17:00:45;48.65;;;26.17;;
67274;SDS011;55463;52.324;5.122;2023-02-14T17:03:14;54.83;;;26.88;;
67274;SDS011;55463;52.324;5.122;2023-02-14T17:05:42;60.17;;;29.48;;
67274;SDS011;55463;52.324;5.122;2023-02-14T17:08:08;59.90;;;28.77;;
67274;SDS011;55463;52.324;5.122;2023-02-14T17:10:36;55.78;;;28.58;;
67274;SDS011;55463;52.324;5.122;2023-02-14T17:13:04;58.20;;;28.63;;
67274;SDS011;55463;52.324;5.122;2023-02-14T17:15:30;66.95;;;30.35;;
67274;SDS011;55463;52.324;5.122;2023-02-14T17:18:08;60.10;;;29.27;;
67274;SDS011;55463;52.324;5.122;2023-02-14T17:20:39;60.20;;;29.33;;
67274;SDS011;55463;52.324;5.122;2023-02-14T17:23:05;61.25;;;30.08;;
67274;SDS011;55463;52.324;5.122;2023-02-14T17:25:33;62.55;;;31.25;;
67274;SDS011;55463;52.324;5.122;2023-02-14T17:28:14;62.55;;;32.95;;
67274;SDS011;55463;52.324;5.122;2023-02-14T17:30:43;63.65;;;33.13;;
67274;SDS011;55463;52.324;5.122;2023-02-14T17:33:08;63.97;;;33.28;;
67274;SDS011;55463;52.324;5.122;2023-02-14T17:35:57;75.07;;;33.05;;
67274;SDS011;55463;52.324;5.122;2023-02-14T17:38:54;71.35;;;34.47;;
67274;SDS011;55463;52.324;5.122;2023-02-14T17:41:20;78.85;;;38.53;;
67274;SDS011;55463;52.324;5.122;2023-02-14T17:43:54;81.18;;;38.15;;
67274;SDS011;55463;52.324;5.122;2023-02-14T17:46:24;66.97;;;33.97;;
67274;SDS011;55463;52.324;5.122;2023-02-14T17:48:52;80.10;;;37.35;;
67274;SDS011;55463;52.324;5.122;2023-02-14T17:51:24;94.68;;;41.03;;
67274;SDS011;55463;52.324;5.122;2023-02-14T17:53:57;73.10;;;36.08;;
67274;SDS011;55463;52.324;5.122;2023-02-14T17:56:24;75.93;;;36.30;;
67274;SDS011;55463;52.324;5.122;2023-02-14T17:58:50;80.43;;;37.88;;
67274;SDS011;55463;52.324;5.122;2023-02-14T18:01:21;78.70;;;36.95;;
67274;SDS011;55463;52.324;5.122;2023-02-14T18:03:48;81.75;;;38.58;;
67274;SDS011;55463;52.324;5.122;2023-02-14T18:06:19;77.78;;;36.63;;
67274;SDS011;55463;52.324;5.122;2023-02-14T18:08:46;83.80;;;37.22;;
67274;SDS011;55463;52.324;5.122;2023-02-14T18:11:14;91.97;;;38.00;;
67274;SDS011;55463;52.324;5.122;2023-02-14T18:13:43;84.88;;;39.28;;
67274;SDS011;55463;52.324;5.122;2023-02-14T18:16:12;77.88;;;36.63;;
67274;SDS011;55463;52.324;5.122;2023-02-14T18:18:39;83.07;;;39.03;;
67274;SDS011;55463;52.324;5.122;2023-02-14T18:21:07;82.72;;;39.00;;
67274;SDS011;55463;52.324;5.122;2023-02-14T18:23:34;87.25;;;39.85;;
67274;SDS011;55463;52.324;5.122;2023-02-14T18:26:02;77.78;;;37.70;;
67274;SDS011;55463;52.324;5.122;2023-02-14T18:28:32;82.53;;;38.17;;
67274;SDS011;55463;52.324;5.122;2023-02-14T18:31:04;83.13;;;37.92;;
67274;SDS011;55463;52.324;5.122;2023-02-14T18:36:06;88.75;;;35.40;;
67274;SDS011;55463;52.324;5.122;2023-02-14T18:38:37;90.05;;;39.13;;
67274;SDS011;55463;52.324;5.122;2023-02-14T18:41:07;95.78;;;42.38;;
67274;SDS011;55463;52.324;5.122;2023-02-14T18:43:37;101.88;;;45.88;;
67274;SDS011;55463;52.324;5.122;2023-02-14T18:46:05;89.63;;;39.03;;
67274;SDS011;55463;52.324;5.122;2023-02-14T18:48:33;95.70;;;42.25;;
67274;SDS011;55463;52.324;5.122;2023-02-14T18:51:05;86.68;;;40.78;;
67274;SDS011;55463;52.324;5.122;2023-02-14T18:53:39;181.10;;;107.53;;
67274;SDS011;55463;52.324;5.122;2023-02-14T18:56:06;83.20;;;38.08;;
67274;SDS011;55463;52.324;5.122;2023-02-14T18:58:34;95.05;;;41.58;;
67274;SDS011;55463;52.324;5.122;2023-02-14T19:01:13;98.65;;;41.17;;
67274;SDS011;55463;52.324;5.122;2023-02-14T19:03:40;100.03;;;41.83;;
67274;SDS011;55463;52.324;5.122;2023-02-14T19:06:06;103.78;;;42.35;;
67274;SDS011;55463;52.324;5.122;2023-02-14T19:08:33;108.32;;;43.83;;
67274;SDS011;55463;52.324;5.122;2023-02-14T19:10:59;102.70;;;45.92;;
67274;SDS011;55463;52.324;5.122;2023-02-14T19:13:26;110.05;;;45.10;;
67274;SDS011;55463;52.324;5.122;2023-02-14T19:15:55;96.18;;;42.75;;
67274;SDS011;55463;52.324;5.122;2023-02-14T19:18:24;107.53;;;44.85;;
67274;SDS011;55463;52.324;5.122;2023-02-14T19:20:50;106.10;;;43.20;;
67274;SDS011;55463;52.324;5.122;2023-02-14T19:23:16;102.40;;;42.42;;
67274;SDS011;55463;52.324;5.122;2023-02-14T19:25:44;101.00;;;43.75;;
67274;SDS011;55463;52.324;5.122;2023-02-14T19:28:10;115.15;;;44.47;;
67274;SDS011;55463;52.324;5.122;2023-02-14T19:30:36;105.25;;;44.50;;
67274;SDS011;55463;52.324;5.122;2023-02-14T19:33:02;115.88;;;45.60;;
67274;SDS011;55463;52.324;5.122;2023-02-14T19:35:27;126.07;;;46.55;;
67274;SDS011;55463;52.324;5.122;2023-02-14T19:37:53;123.38;;;45.20;;
67274;SDS011;55463;52.324;5.122;2023-02-14T19:40:19;103.10;;;44.95;;
67274;SDS011;55463;52.324;5.122;2023-02-14T19:42:49;122.07;;;46.03;;
67274;SDS011;55463;52.324;5.122;2023-02-14T19:45:15;114.68;;;45.58;;
67274;SDS011;55463;52.324;5.122;2023-02-14T19:47:41;121.15;;;45.75;;
67274;SDS011;55463;52.324;5.122;2023-02-14T19:50:06;111.20;;;43.28;;
67274;SDS011;55463;52.324;5.122;2023-02-14T19:52:32;129.93;;;47.85;;
67274;SDS011;55463;52.324;5.122;2023-02-14T19:54:58;120.43;;;45.95;;
67274;SDS011;55463;52.324;5.122;2023-02-14T19:57:24;114.40;;;45.40;;
67274;SDS011;55463;52.324;5.122;2023-02-14T19:59:50;101.70;;;42.38;;
67274;SDS011;55463;52.324;5.122;2023-02-14T20:02:16;124.38;;;46.13;;
67274;SDS011;55463;52.324;5.122;2023-02-14T20:04:43;105.80;;;44.15;;
67274;SDS011;55463;52.324;5.122;2023-02-14T20:07:09;106.45;;;44.33;;
67274;SDS011;55463;52.324;5.122;2023-02-14T20:09:35;106.35;;;44.95;;
67274;SDS011;55463;52.324;5.122;2023-02-14T20:12:06;104.25;;;45.30;;
67274;SDS011;55463;52.324;5.122;2023-02-14T20:14:32;114.18;;;44.05;;
67274;SDS011;55463;52.324;5.122;2023-02-14T20:17:00;101.20;;;44.08;;
67274;SDS011;55463;52.324;5.122;2023-02-14T20:19:29;118.72;;;44.90;;
67274;SDS011;55463;52.324;5.122;2023-02-14T20:21:57;115.95;;;43.47;;
67274;SDS011;55463;52.324;5.122;2023-02-14T20:24:24;112.63;;;45.70;;
67274;SDS011;55463;52.324;5.122;2023-02-14T20:26:52;102.95;;;44.08;;
67274;SDS011;55463;52.324;5.122;2023-02-14T20:29:21;123.85;;;44.83;;
67274;SDS011;55463;52.324;5.122;2023-02-14T20:31:49;122.15;;;46.45;;